Time;durP1;ratioP1;P1;durP2;ratioP2;P2;SDS_P1;SDS_P2;PMS_P1;PMS_P2;Temp;Humidity;BMP_temperature;BMP_pressure;BME280_temperature;BME280_humidity;BME280_pressure;Samples;Min_cycle;Max_cycle;Signal;HPM_P1;HPM_P2
2023/01/26 00:00:53;;;;;;;97.40;26.67;;;;;;;-3.29;100.00;102114.66;7396797;19;20150;-59
2023/01/26 00:03:23;;;;;;;101.65;26.13;;;;;;;-3.29;100.00;102111.22;7394354;19;20190;-60
2023/01/26 00:05:55;;;;;;;104.60;29.88;;;;;;;-3.28;100.00;102115.56;7397469;19;20218;-61
2023/01/26 00:08:25;;;;;;;93.60;24.25;;;;;;;-3.30;100.00;102115.38;7394341;19;20206;-60
2023/01/26 00:10:54;;;;;;;117.35;30.70;;;;;;;-3.23;100.00;102111.94;7398389;19;20152;-61
2023/01/26 00:13:24;;;;;;;106.63;30.50;;;;;;;-3.23;100.00;102106.00;7395203;19;20214;-60
2023/01/26 00:15:53;;;;;;;119.07;31.48;;;;;;;-3.31;100.00;102092.47;7397374;19;20138;-60
2023/01/26 00:18:22;;;;;;;78.70;18.77;;;;;;;-3.33;100.00;102096.44;7393254;19;20676;-60
2023/01/26 00:20:59;;;;;;;113.45;30.55;;;;;;;-3.28;100.00;102093.75;7397964;19;20153;-60
2023/01/26 00:23:30;;;;;;;113.05;30.75;;;;;;;-3.24;100.00;102089.94;7395656;19;20222;-60
2023/01/26 00:26:00;;;;;;;82.15;23.90;;;;;;;-3.29;100.00;102096.06;7396012;19;20154;-60
2023/01/26 00:28:30;;;;;;;96.68;27.10;;;;;;;-3.29;100.00;102091.03;7394506;19;20198;-61
2023/01/26 00:31:03;;;;;;;90.40;25.25;;;;;;;-3.26;100.00;102081.31;7398157;19;20617;-61
2023/01/26 00:33:33;;;;;;;79.38;25.15;;;;;;;-3.30;100.00;102085.09;7394255;19;20194;-61
2023/01/26 00:36:06;;;;;;;82.97;25.33;;;;;;;-3.27;100.00;102084.56;7396909;19;20166;-60
2023/01/26 00:38:35;;;;;;;69.38;22.38;;;;;;;-3.33;100.00;102081.31;7395527;19;20200;-60
2023/01/26 00:41:05;;;;;;;91.28;23.45;;;;;;;-3.33;100.00;102079.66;7396363;19;20150;-61
2023/01/26 00:43:34;;;;;;;77.07;20.90;;;;;;;-3.36;100.00;102076.78;7395065;19;20201;-60
2023/01/26 00:46:04;;;;;;;98.68;27.58;;;;;;;-3.29;100.00;102073.34;7395577;19;20135;-60
2023/01/26 00:48:33;;;;;;;74.28;21.90;;;;;;;-3.28;100.00;102070.13;7393690;19;20225;-60
2023/01/26 00:51:05;;;;;;;106.30;26.67;;;;;;;-3.24;100.00;102082.38;7397168;19;20139;-60
2023/01/26 00:53:35;;;;;;;92.93;24.92;;;;;;;-3.24;100.00;102073.91;7395122;19;20213;-59
2023/01/26 00:56:04;;;;;;;85.30;24.65;;;;;;;-3.24;100.00;102073.91;7396501;19;20141;-59
2023/01/26 00:58:34;;;;;;;63.65;18.50;;;;;;;-3.28;100.00;102077.72;7388320;19;20194;-60
2023/01/26 01:01:03;;;;;;;82.10;24.15;;;;;;;-3.25;100.00;102062.91;7396801;19;20138;-60
2023/01/26 01:03:33;;;;;;;80.15;22.52;;;;;;;-3.24;100.00;102061.28;7393578;19;20214;-60
2023/01/26 01:06:02;;;;;;;99.47;26.90;;;;;;;-3.31;100.00;102069.75;7394968;19;20138;-61
2023/01/26 01:08:34;;;;;;;81.55;25.17;;;;;;;-3.23;100.00;102069.03;7393144;19;20230;-62
2023/01/26 01:11:08;;;;;;;87.97;24.85;;;;;;;-3.05;100.00;102056.78;7396487;19;20139;-60
2023/01/26 01:13:38;;;;;;;100.07;24.23;;;;;;;-3.13;100.00;102063.47;7394029;19;20678;-60
2023/01/26 01:16:08;;;;;;;79.25;25.05;;;;;;;-3.09;100.00;102062.19;7395675;19;20170;-60
2023/01/26 01:18:38;;;;;;;100.00;26.27;;;;;;;-3.16;100.00;102053.91;7394789;19;20696;-61
2023/01/26 01:21:08;;;;;;;81.38;22.15;;;;;;;-3.21;100.00;102046.50;7395951;19;20134;-58
2023/01/26 01:23:41;;;;;;;79.63;21.77;;;;;;;-3.24;100.00;102043.63;7391286;19;20194;-60
2023/01/26 01:26:11;;;;;;;80.90;23.45;;;;;;;-3.25;100.00;102045.22;7391959;19;20135;-61
2023/01/26 01:28:40;;;;;;;81.85;25.13;;;;;;;-3.20;100.00;102046.69;7390560;19;20192;-60
2023/01/26 01:31:12;;;;;;;78.43;23.58;;;;;;;-3.17;100.00;102047.03;7393273;19;20142;-61
2023/01/26 01:33:42;;;;;;;91.00;25.23;;;;;;;-3.19;100.00;102048.47;7391007;19;20190;-60
2023/01/26 01:36:14;;;;;;;92.05;24.65;;;;;;;-3.18;100.00;102037.66;7391601;19;20153;-61
2023/01/26 01:38:47;;;;;;;85.68;24.00;;;;;;;-3.18;100.00;102040.19;7390806;19;20190;-60
2023/01/26 01:41:18;;;;;;;86.28;26.88;;;;;;;-3.13;100.00;102049.19;7393421;19;20139;-61
2023/01/26 01:43:48;;;;;;;89.82;25.58;;;;;;;-3.09;100.00;102039.47;7389725;19;20285;-59
2023/01/26 01:46:23;;;;;;;85.68;24.02;;;;;;;-3.15;100.00;102047.22;7392290;19;20139;-60
2023/01/26 01:48:55;;;;;;;79.88;25.25;;;;;;;-3.16;100.00;102051.38;7390067;19;20186;-60
2023/01/26 01:51:32;;;;;;;80.82;25.23;;;;;;;-3.14;100.00;102042.34;7393435;19;20131;-60
2023/01/26 01:54:07;;;;;;;83.78;24.10;;;;;;;-3.10;100.00;102047.75;7387392;19;20556;-60
2023/01/26 01:56:37;;;;;;;87.03;26.20;;;;;;;-3.15;100.00;102047.22;7393489;19;20537;-60
2023/01/26 01:59:08;;;;;;;89.85;25.05;;;;;;;-3.15;100.00;102050.66;7390289;19;20670;-60
2023/01/26 02:01:37;;;;;;;86.88;23.00;;;;;;;-3.15;100.00;102044.69;7394644;19;20139;-60
2023/01/26 02:04:07;;;;;;;78.00;22.42;;;;;;;-3.20;100.00;102046.69;7384488;19;20257;-59
2023/01/26 02:06:41;;;;;;;85.53;26.10;;;;;;;-3.18;100.00;102049.41;7393981;19;20178;-60
2023/01/26 02:10:17;;;;;;;83.93;24.00;;;;;;;-3.12;100.00;102048.47;7392076;19;20213;-59
2023/01/26 02:12:04;;;;;;;72.60;22.73;;;;;;;-3.13;100.00;102046.66;7394602;19;20143;-59
2023/01/26 02:14:34;;;;;;;87.82;24.05;;;;;;;-3.07;100.00;102048.13;7391943;19;20257;-60
2023/01/26 02:17:03;;;;;;;71.47;21.55;;;;;;;-3.12;100.00;102050.13;7393628;19;20167;-58
2023/01/26 02:19:39;;;;;;;81.47;23.52;;;;;;;-3.08;100.00;102048.84;7392506;19;20194;-59
2023/01/26 02:22:14;;;;;;;78.68;23.35;;;;;;;-3.07;100.00;102043.06;7395181;19;20452;-60
2023/01/26 02:24:46;;;;;;;82.13;23.77;;;;;;;-3.03;100.00;102041.06;7395005;19;20206;-60
2023/01/26 02:27:18;;;;;;;77.97;24.42;;;;;;;-2.99;100.00;102038.19;7390208;19;20167;-59
2023/01/26 02:29:48;;;;;;;75.07;23.83;;;;;;;-2.90;100.00;102032.41;7393461;19;20171;-62
2023/01/26 02:32:17;;;;;;;84.57;26.48;;;;;;;-2.71;100.00;102020.28;7392540;19;20150;-60
2023/01/26 02:34:47;;;;;;;76.50;24.38;;;;;;;-2.89;100.00;102025.00;7393359;19;20134;-62
2023/01/26 02:37:16;;;;;;;75.60;22.67;;;;;;;-2.99;100.00;102019.59;7390372;19;20166;-59
2023/01/26 02:39:51;;;;;;;82.38;23.33;;;;;;;-2.95;100.00;102019.25;7392934;19;20142;-59
2023/01/26 02:45:05;;;;;;;64.07;19.17;;;;;;;-3.03;100.00;102020.00;7394236;19;20138;-59
2023/01/26 02:47:35;;;;;;;83.57;25.08;;;;;;;-3.02;100.00;102017.63;7389718;19;20609;-60
2023/01/26 02:50:03;;;;;;;71.35;22.67;;;;;;;-3.01;100.00;102019.44;7393493;19;20146;-60
2023/01/26 02:52:32;;;;;;;60.40;19.00;;;;;;;-3.05;100.00;102017.28;7391435;19;20592;-61
2023/01/26 02:57:46;;;;;;;68.35;22.60;;;;;;;-3.02;100.00;102020.13;7390382;19;20194;-58
2023/01/26 03:00:18;;;;;;;76.72;21.92;;;;;;;-2.98;100.00;102018.88;7393533;19;20141;-60
2023/01/26 03:02:48;;;;;;;66.18;21.55;;;;;;;-2.97;100.00;102022.31;7389427;19;20214;-59
2023/01/26 03:05:18;;;;;;;78.38;23.70;;;;;;;-2.88;100.00;102016.69;7400624;19;20187;-60
2023/01/26 03:07:47;;;;;;;74.68;24.02;;;;;;;-2.88;100.00;102019.22;7394182;19;20219;-59
2023/01/26 03:10:17;;;;;;;63.35;21.45;;;;;;;-2.91;100.00;102016.38;7401119;19;20639;-59
2023/01/26 03:12:49;;;;;;;73.75;22.27;;;;;;;-2.87;100.00;102012.56;7396765;19;20194;-60
2023/01/26 03:28:55;;;;;;;69.38;22.33;;;;;;;-2.77;100.00;102002.78;7397338;19;20186;-59
2023/01/26 03:31:25;;;;;;;69.05;23.40;;;;;;;-2.76;100.00;102008.75;7400564;19;20147;-62
2023/01/26 03:33:54;;;;;;;73.75;23.60;;;;;;;-2.73;100.00;101994.84;7397431;19;20298;-59
2023/01/26 03:36:24;;;;;;;68.93;21.60;;;;;;;-2.71;100.00;102000.06;7398768;19;20142;-60
2023/01/26 03:38:53;;;;;;;61.17;20.45;;;;;;;-2.71;100.00;102005.13;7396515;19;20194;-62
2023/01/26 03:57:37;;;;;;;62.67;19.20;;;;;;;-2.70;100.00;102001.88;7395609;19;20198;-60
2023/01/26 04:00:13;;;;;;;64.95;20.00;;;;;;;-2.69;100.00;102003.66;7399099;19;20175;-59
2023/01/26 04:10:50;;;;;;;64.95;21.60;;;;;;;-2.64;100.00;102011.78;7398760;19;20146;-59
2023/01/26 04:21:32;;;;;;;70.78;19.63;;;;;;;-2.50;100.00;102003.25;7399416;19;20139;-60
2023/01/26 04:24:08;;;;;;;62.70;20.70;;;;;;;-2.58;100.00;101999.84;7395748;19;20186;-60
2023/01/26 04:26:38;;;;;;;54.63;17.48;;;;;;;-2.61;100.00;102002.03;7398344;19;20178;-60
2023/01/26 04:29:10;;;;;;;55.47;19.60;;;;;;;-2.53;100.00;102007.94;7395651;19;20201;-61
2023/01/26 04:31:43;;;;;;;49.20;17.42;;;;;;;-2.61;100.00;102004.56;7399708;19;20142;-61
2023/01/26 04:34:14;;;;;;;48.75;15.75;;;;;;;-2.58;100.00;102004.91;7395764;19;20186;-60
2023/01/26 04:36:45;;;;;;;49.25;17.55;;;;;;;-2.58;100.00;102003.28;7398114;19;20175;-61
2023/01/26 04:39:14;;;;;;;60.05;20.10;;;;;;;-2.53;100.00;101995.31;7395841;19;20192;-60
2023/01/26 04:41:43;;;;;;;57.05;18.70;;;;;;;-2.58;100.00;101993.19;7399434;19;20131;-62
2023/01/26 04:44:13;;;;;;;60.13;19.10;;;;;;;-2.53;100.00;101996.22;7394990;19;20190;-60
2023/01/26 04:46:47;;;;;;;55.80;18.50;;;;;;;-2.50;100.00;101995.66;7397558;19;20649;-61
2023/01/26 04:49:17;;;;;;;53.95;18.75;;;;;;;-2.48;100.00;101999.25;7394390;19;20208;-60
2023/01/26 04:51:46;;;;;;;56.15;19.70;;;;;;;-2.21;100.00;102005.69;7398437;19;20689;-60
2023/01/26 04:54:15;;;;;;;60.20;17.92;;;;;;;-2.38;100.00;101997.06;7394856;19;20222;-60
2023/01/26 04:56:45;;;;;;;51.40;17.90;;;;;;;-2.48;100.00;101996.75;7397656;19;20171;-60
2023/01/26 04:59:15;;;;;;;45.88;15.77;;;;;;;-2.47;100.00;101985.91;7394874;19;20663;-60
2023/01/26 05:01:47;;;;;;;54.70;17.50;;;;;;;-2.42;100.00;101984.78;7398237;19;20513;-60
2023/01/26 05:04:16;;;;;;;49.92;16.85;;;;;;;-2.34;100.00;101994.19;7393022;19;20217;-58
2023/01/26 05:06:46;;;;;;;50.85;16.63;;;;;;;-2.37;100.00;101996.34;7397689;19;20171;-60
2023/01/26 05:09:15;;;;;;;44.40;15.07;;;;;;;-2.41;100.00;101995.81;7393787;19;20197;-59
2023/01/26 05:11:45;;;;;;;55.15;19.02;;;;;;;-2.39;100.00;101990.22;7398208;19;20138;-61
2023/01/26 05:14:14;;;;;;;52.58;17.45;;;;;;;-2.39;100.00;101982.63;7394849;19;20201;-60
2023/01/26 05:16:46;;;;;;;51.55;16.17;;;;;;;-2.40;100.00;101975.78;7397048;19;20178;-61
2023/01/26 05:19:16;;;;;;;46.63;15.65;;;;;;;-2.44;100.00;101981.22;7394388;19;20238;-61
2023/01/26 05:21:46;;;;;;;49.42;15.50;;;;;;;-2.44;100.00;101988.78;7397965;19;20481;-60
2023/01/26 05:24:15;;;;;;;50.97;16.63;;;;;;;-2.42;100.00;101989.84;7394122;19;20189;-60
2023/01/26 05:26:45;;;;;;;50.65;16.98;;;;;;;-2.39;100.00;101990.22;7396321;19;20198;-60
2023/01/26 05:29:14;;;;;;;54.10;18.10;;;;;;;-2.45;100.00;101981.94;7392417;19;20189;-61
2023/01/26 05:31:43;;;;;;;47.50;15.32;;;;;;;-2.39;100.00;101980.09;7397435;19;20151;-61
2023/01/26 05:34:15;;;;;;;55.00;17.55;;;;;;;-2.33;100.00;101984.94;7393043;19;20190;-59
2023/01/26 05:36:45;;;;;;;47.70;16.95;;;;;;;-2.34;100.00;101988.19;7395917;19;20179;-60
2023/01/26 05:39:14;;;;;;;52.75;16.98;;;;;;;-2.34;100.00;101989.13;7393274;19;20194;-60
2023/01/26 05:41:44;;;;;;;54.67;17.00;;;;;;;-2.36;100.00;101985.50;7397164;19;20508;-61
2023/01/26 05:44:13;;;;;;;40.00;14.70;;;;;;;-2.41;100.00;101985.72;7393907;19;20198;-62
2023/01/26 05:46:43;;;;;;;43.47;14.10;;;;;;;-2.27;100.00;101974.66;7395156;19;20166;-60
2023/01/26 05:49:12;;;;;;;45.10;15.00;;;;;;;-2.33;100.00;101973.22;7392415;19;20194;-61
2023/01/26 05:51:44;;;;;;;46.33;15.65;;;;;;;-2.36;100.00;101977.03;7396731;19;20134;-60
2023/01/26 05:54:14;;;;;;;44.00;16.27;;;;;;;-2.29;100.00;101979.50;7393290;19;20186;-61
2023/01/26 05:56:43;;;;;;;43.42;15.00;;;;;;;-2.34;100.00;101988.19;7395658;19;20167;-61
2023/01/26 05:59:13;;;;;;;45.63;16.92;;;;;;;-2.39;100.00;101977.56;7392411;19;20190;-61
2023/01/26 06:01:42;;;;;;;43.08;14.05;;;;;;;-2.36;100.00;101979.56;7396456;19;20131;-60
2023/01/26 06:04:12;;;;;;;45.58;15.55;;;;;;;-2.39;100.00;101989.31;7390059;19;20663;-60
2023/01/26 06:06:41;;;;;;;49.97;17.55;;;;;;;-2.35;100.00;101992.34;7394995;19;20210;-61
2023/01/26 06:09:13;;;;;;;46.55;15.35;;;;;;;-2.31;100.00;101993.59;7390752;19;21151;-61
2023/01/26 06:11:43;;;;;;;51.97;17.27;;;;;;;-2.38;100.00;101992.00;7396380;19;20154;-62
2023/01/26 06:14:12;;;;;;;46.17;16.52;;;;;;;-2.30;100.00;101987.84;7391798;19;20190;-61
2023/01/26 06:16:42;;;;;;;44.05;15.10;;;;;;;-2.26;100.00;101984.91;7395079;19;20174;-61
2023/01/26 06:19:12;;;;;;;39.03;14.15;;;;;;;-2.28;100.00;101988.91;7392164;19;20207;-62
2023/01/26 06:21:42;;;;;;;49.50;16.48;;;;;;;-2.26;100.00;101986.56;7396076;19;20142;-62
2023/01/26 06:24:14;;;;;;;43.92;15.10;;;;;;;-2.25;100.00;101988.34;7391974;19;20209;-61
2023/01/26 06:26:43;;;;;;;49.03;15.63;;;;;;;-2.20;100.00;101988.13;7394434;19;20174;-61
2023/01/26 06:29:13;;;;;;;47.47;17.00;;;;;;;-2.17;100.00;101990.09;7387724;19;20186;-61
2023/01/26 06:31:43;;;;;;;44.83;14.50;;;;;;;-2.18;100.00;101988.31;7395306;19;20149;-62
2023/01/26 06:34:12;;;;;;;50.78;16.75;;;;;;;-2.15;100.00;101983.63;7391745;19;20229;-61
2023/01/26 06:36:42;;;;;;;44.53;14.52;;;;;;;-2.14;100.00;101993.00;7393943;19;20174;-61
2023/01/26 06:39:15;;;;;;;45.30;16.15;;;;;;;-2.10;100.00;101995.13;7390161;19;20190;-61
2023/01/26 06:41:45;;;;;;;42.63;14.90;;;;;;;-2.17;100.00;101998.59;7395142;19;20544;-61
2023/01/26 06:44:15;;;;;;;49.50;16.98;;;;;;;-2.11;100.00;101998.38;7391638;19;20182;-61
2023/01/26 06:46:44;;;;;;;49.50;16.42;;;;;;;-2.11;100.00;101990.78;7394446;19;20661;-62
2023/01/26 06:49:15;;;;;;;51.60;17.30;;;;;;;-2.06;100.00;101993.84;7389895;19;20194;-61
2023/01/26 06:51:52;;;;;;;40.08;14.50;;;;;;;-2.05;100.00;101988.97;7396280;19;20130;-62
2023/01/26 06:54:24;;;;;;;48.38;12.98;;;;;;;-2.17;100.00;101985.03;7392638;19;20542;-60
2023/01/26 06:56:53;;;;;;;47.47;14.95;;;;;;;-2.11;100.00;101985.75;7392706;19;20175;-61
2023/01/26 06:59:23;;;;;;;45.63;15.55;;;;;;;-2.11;100.00;101982.31;7392347;19;20193;-61
2023/01/26 07:01:52;;;;;;;47.25;15.20;;;;;;;-2.05;100.00;101988.97;7393114;19;20526;-62
2023/01/26 07:04:22;;;;;;;44.63;15.30;;;;;;;-2.01;100.00;101984.25;7390015;19;20566;-62
2023/01/26 07:06:51;;;;;;;43.78;14.68;;;;;;;-2.00;100.00;101981.00;7392570;19;20190;-61
2023/01/26 07:09:23;;;;;;;39.22;14.63;;;;;;;-2.04;100.00;101989.88;7390763;19;20669;-63
2023/01/26 07:11:52;;;;;;;42.95;15.55;;;;;;;-2.07;100.00;101989.50;7394040;19;20139;-60
2023/01/26 07:14:22;;;;;;;42.50;13.93;;;;;;;-2.09;100.00;101994.41;7391448;19;20189;-61
2023/01/26 07:16:51;;;;;;;36.05;14.45;;;;;;;-1.93;100.00;101994.50;7391850;19;20167;-61
2023/01/26 07:19:21;;;;;;;41.00;14.35;;;;;;;-1.94;100.00;101996.84;7391098;19;20214;-61
2023/01/26 07:21:51;;;;;;;40.08;14.60;;;;;;;-1.93;100.00;102002.09;7393460;19;20809;-62
2023/01/26 07:24:20;;;;;;;40.53;15.32;;;;;;;-1.91;100.00;101992.13;7390676;19;20218;-61
2023/01/26 07:26:53;;;;;;;42.22;13.52;;;;;;;-1.96;100.00;101998.28;7392545;19;20176;-62
2023/01/26 07:29:22;;;;;;;38.47;13.05;;;;;;;-1.95;100.00;102000.13;7390155;19;20209;-62
2023/01/26 07:31:51;;;;;;;38.50;13.02;;;;;;;-1.94;100.00;102004.44;7394430;19;20131;-62
2023/01/26 07:34:21;;;;;;;43.38;15.05;;;;;;;-1.96;100.00;102014.38;7392531;19;20568;-62
2023/01/26 07:36:53;;;;;;;43.13;13.80;;;;;;;-1.90;100.00;102024.28;7393103;19;20174;-62
2023/01/26 07:39:22;;;;;;;41.80;13.15;;;;;;;-1.91;100.00;102009.84;7391773;19;20559;-62
2023/01/26 07:41:54;;;;;;;42.83;14.13;;;;;;;-1.95;100.00;102011.13;7393876;19;20135;-61
2023/01/26 07:44:24;;;;;;;40.15;14.70;;;;;;;-1.90;100.00;102024.28;7393230;19;20518;-62
2023/01/26 07:46:53;;;;;;;36.50;14.65;;;;;;;-1.87;100.00;102022.13;7391998;19;20653;-61
2023/01/26 07:49:23;;;;;;;45.47;15.73;;;;;;;-1.83;100.00;102019.22;7391015;19;20267;-62
2023/01/26 07:51:53;;;;;;;41.58;15.65;;;;;;;-1.81;100.00;102020.28;7399046;19;20146;-63
2023/01/26 07:54:23;;;;;;;46.67;16.17;;;;;;;-1.81;100.00;102016.81;7398739;19;20662;-63
2023/01/26 07:56:56;;;;;;;41.83;13.77;;;;;;;-1.80;100.00;102011.06;7399993;19;20591;-62
2023/01/26 07:59:26;;;;;;;35.97;13.57;;;;;;;-1.79;100.00;102011.22;7399024;19;20254;-61
2023/01/26 08:01:55;;;;;;;42.03;14.57;;;;;;;-1.74;100.00;102009.22;7402387;19;20135;-61
2023/01/26 08:04:24;;;;;;;37.17;13.45;;;;;;;-1.74;100.00;102013.38;7398583;19;20722;-61
2023/01/26 08:06:54;;;;;;;40.05;14.05;;;;;;;-1.74;100.00;102013.38;7403325;19;20195;-61
2023/01/26 08:09:25;;;;;;;35.35;11.88;;;;;;;-1.71;100.00;102007.00;7398520;19;20186;-60
2023/01/26 08:11:58;;;;;;;38.53;13.85;;;;;;;-1.67;100.00;102008.25;7402346;19;20134;-62
2023/01/26 08:14:27;;;;;;;37.60;13.02;;;;;;;-1.66;100.00;102007.50;7399090;19;20194;-62
2023/01/26 08:17:16;;;;;;;32.50;12.07;;;;;;;-1.66;100.00;102010.97;7401228;19;20223;-62
2023/01/26 08:19:45;;;;;;;34.20;13.75;;;;;;;-1.65;100.00;102010.22;7403123;19;20201;-62
2023/01/26 08:22:15;;;;;;;31.92;12.07;;;;;;;-1.68;100.00;102022.56;7401551;19;20147;-60
2023/01/26 08:24:44;;;;;;;34.10;11.55;;;;;;;-1.75;100.00;102019.16;7404043;19;20150;-62
2023/01/26 08:27:17;;;;;;;35.35;10.52;;;;;;;-1.71;100.00;102017.13;7400678;19;20195;-60
2023/01/26 08:29:46;;;;;;;27.15;10.25;;;;;;;-1.64;100.00;102023.78;7401952;19;20557;-62
2023/01/26 08:32:15;;;;;;;39.63;12.15;;;;;;;-1.56;100.00;102022.09;7400483;19;20611;-61
2023/01/26 08:34:45;;;;;;;27.63;10.32;;;;;;;-1.59;100.00;102022.66;7399501;19;20143;-60
2023/01/26 08:37:15;;;;;;;26.40;10.05;;;;;;;-1.63;100.00;102033.19;7401842;19;20643;-61
2023/01/26 08:39:44;;;;;;;26.52;10.50;;;;;;;-1.58;100.00;102026.09;7402083;19;20182;-60
2023/01/26 08:42:13;;;;;;;26.00;8.60;;;;;;;-1.77;100.00;102029.09;7401012;19;20146;-61
2023/01/26 08:44:46;;;;;;;25.38;9.60;;;;;;;-1.67;100.00;102036.09;7401401;19;20214;-62
2023/01/26 08:47:15;;;;;;;27.15;10.60;;;;;;;-1.59;100.00;102034.44;7397122;19;20555;-60
2023/01/26 08:49:44;;;;;;;27.83;10.88;;;;;;;-1.59;100.00;102027.72;7400837;19;20151;-61
2023/01/26 08:52:15;;;;;;;24.83;10.38;;;;;;;-1.61;100.00;102029.19;7400131;19;20151;-61
2023/01/26 08:54:44;;;;;;;23.63;9.50;;;;;;;-1.58;100.00;102029.53;7399751;19;20616;-62
2023/01/26 08:57:14;;;;;;;23.10;9.48;;;;;;;-1.57;100.00;102028.81;7401500;19;20177;-62
2023/01/26 08:59:46;;;;;;;26.05;9.63;;;;;;;-1.55;100.00;102034.94;7401030;19;20189;-62
2023/01/26 09:02:15;;;;;;;28.08;10.40;;;;;;;-1.59;100.00;102032.78;7397060;19;20150;-61
2023/01/26 09:04:45;;;;;;;24.23;9.80;;;;;;;-1.60;100.00;102027.56;7403253;19;20154;-62
2023/01/26 09:07:15;;;;;;;24.65;8.75;;;;;;;-1.51;100.00;102026.97;7401860;19;20174;-62
2023/01/26 09:09:44;;;;;;;25.27;7.95;;;;;;;-1.62;100.00;102024.84;7402115;19;20198;-60
2023/01/26 09:12:14;;;;;;;18.60;7.05;;;;;;;-1.55;100.00;102029.88;7401634;19;20733;-62
2023/01/26 09:14:45;;;;;;;33.55;11.13;;;;;;;-1.52;100.00;102012.50;7399451;19;20218;-62
2023/01/26 09:17:15;;;;;;;60.17;16.02;;;;;;;-1.48;100.00;102021.34;7397914;19;20174;-60
2023/01/26 09:19:44;;;;;;;28.42;10.32;;;;;;;-1.55;100.00;102014.69;7401380;19;20167;-61
2023/01/26 09:22:14;;;;;;;27.15;10.63;;;;;;;-1.34;100.00;102007.63;7400359;19;20147;-60
2023/01/26 09:24:44;;;;;;;26.50;10.38;;;;;;;-1.37;100.00;102009.84;7400434;19;20250;-61
2023/01/26 09:27:13;;;;;;;42.28;13.80;;;;;;;-1.41;100.00;102023.81;7399775;19;20193;-62
2023/01/26 09:29:45;;;;;;;32.05;10.07;;;;;;;-1.46;100.00;102027.47;7400906;19;20190;-61
2023/01/26 09:32:15;;;;;;;27.48;8.68;;;;;;;-1.55;100.00;102011.22;7397231;19;20146;-61
2023/01/26 09:34:44;;;;;;;25.00;8.95;;;;;;;-1.41;100.00;101995.94;7401377;19;20155;-61
2023/01/26 09:37:14;;;;;;;24.77;8.90;;;;;;;-1.40;100.00;101999.38;7398744;19;20238;-62
2023/01/26 09:39:43;;;;;;;26.45;10.10;;;;;;;-1.35;100.00;101993.19;7401227;19;20182;-62
2023/01/26 09:42:41;;;;;;;27.40;8.85;;;;;;;-1.41;100.00;101993.41;7399652;19;20146;-61
2023/01/26 09:45:24;;;;;;;44.00;13.48;;;;;;;-1.27;100.00;101992.38;7400522;19;20223;-62
2023/01/26 09:48:02;;;;;;;71.15;17.83;;;;;;;-1.26;100.00;101989.13;7395611;19;20201;-62
2023/01/26 09:50:36;;;;;;;39.72;11.38;;;;;;;-1.20;100.00;101999.03;7400392;19;20152;-62
2023/01/26 09:53:12;;;;;;;74.35;17.77;;;;;;;-1.11;100.00;101983.94;7396338;19;20205;-62
2023/01/26 09:55:43;;;;;;;51.60;14.88;;;;;;;-1.26;100.00;101994.19;7399755;19;20150;-62
2023/01/26 09:58:16;;;;;;;27.38;10.55;;;;;;;-1.27;100.00;101997.44;7396994;19;20222;-62
2023/01/26 10:00:50;;;;;;;32.28;10.48;;;;;;;-1.29;100.00;102006.50;7402032;19;20166;-62
2023/01/26 10:03:25;;;;;;;41.83;13.63;;;;;;;-1.27;100.00;101997.44;7396453;19;20544;-61
2023/01/26 10:05:59;;;;;;;31.55;10.75;;;;;;;-1.27;100.00;101992.38;7399403;19;20142;-62
2023/01/26 10:08:29;;;;;;;32.17;11.48;;;;;;;-1.21;100.00;101999.75;7391528;19;20205;-60
2023/01/26 10:11:01;;;;;;;35.15;11.38;;;;;;;-1.13;100.00;101988.81;7393880;19;20909;-61
2023/01/26 10:13:31;;;;;;;34.53;10.93;;;;;;;-1.15;100.00;101987.75;7390617;19;20198;-58
2023/01/26 10:16:05;;;;;;;38.95;10.77;;;;;;;-1.18;100.00;101989.06;7395015;19;20131;-60
2023/01/26 10:18:36;;;;;;;41.90;13.30;;;;;;;-1.12;100.00;101987.19;7392431;19;20218;-60
2023/01/26 10:21:09;;;;;;;37.78;11.90;;;;;;;-1.13;100.00;101990.47;7394294;19;20138;-60
2023/01/26 10:23:38;;;;;;;37.30;11.90;;;;;;;-1.17;100.00;101978.19;7392033;19;20641;-61
2023/01/26 10:26:14;;;;;;;46.33;14.70;;;;;;;-1.03;100.00;101975.50;7394077;19;20138;-61
2023/01/26 10:28:44;;;;;;;43.47;13.43;;;;;;;-1.05;100.00;101969.41;7389510;19;20190;-61
2023/01/26 10:31:18;;;;;;;44.58;13.60;;;;;;;-1.06;100.00;101972.66;7393787;19;20162;-61
2023/01/26 10:33:52;;;;;;;43.03;12.98;;;;;;;-0.73;100.00;101959.28;7390566;19;20705;-61
2023/01/26 10:36:21;;;;;;;45.65;14.27;;;;;;;-0.98;100.00;101961.72;7393429;19;20142;-62
2023/01/26 10:38:52;;;;;;;42.60;13.27;;;;;;;-0.88;100.00;101957.66;7390543;19;20182;-61
2023/01/26 10:41:39;;;;;;;50.10;15.88;;;;;;;-0.92;100.00;101958.03;7395209;19;20134;-63
2023/01/26 10:44:24;;;;;;;69.10;12.07;;;;;;;-0.91;100.00;101957.31;7392783;19;20214;-64
2023/01/26 10:47:07;;;;;;;51.00;12.52;;;;;;;-0.94;100.00;101962.94;7393020;19;20174;-61
2023/01/26 10:49:38;;;;;;;53.25;17.77;;;;;;;-0.81;100.00;101967.69;7391962;19;20201;-62
2023/01/26 10:52:12;;;;;;;67.65;21.10;;;;;;;-0.57;100.00;101966.88;7392522;19;20151;-62
2023/01/26 10:54:43;;;;;;;44.25;13.13;;;;;;;-0.53;100.00;101965.56;7394431;19;20474;-62
2023/01/26 10:57:20;;;;;;;58.80;18.05;;;;;;;-0.68;100.00;101963.22;7392135;19;20174;-62
2023/01/26 10:59:53;;;;;;;61.47;15.40;;;;;;;-0.42;100.00;101964.16;7391664;19;20512;-63
2023/01/26 11:02:27;;;;;;;38.75;13.65;;;;;;;-0.55;100.00;101974.66;7388919;19;20498;-62
2023/01/26 11:05:05;;;;;;;43.83;12.57;;;;;;;-0.69;100.00;101979.16;7393029;19;20146;-63
2023/01/26 11:07:37;;;;;;;39.70;12.77;;;;;;;-0.71;100.00;101978.06;7389232;19;20177;-63
2023/01/26 11:10:20;;;;;;;52.38;15.70;;;;;;;-0.38;100.00;101973.91;7391461;19;20169;-63
2023/01/26 11:12:50;;;;;;;51.10;16.25;;;;;;;-0.43;100.00;101965.81;7389367;19;20194;-62
2023/01/26 11:15:21;;;;;;;39.27;13.57;;;;;;;0.00;100.00;101965.97;7393559;19;20607;-63
2023/01/26 11:17:58;;;;;;;46.20;14.20;;;;;;;-0.45;100.00;101967.25;7387822;19;20463;-63
2023/01/26 11:20:42;;;;;;;42.95;13.23;;;;;;;-0.44;100.00;101969.09;7392819;19;20141;-64
2023/01/26 11:23:17;;;;;;;43.63;14.15;;;;;;;-0.50;100.00;101972.59;7389208;19;20201;-63
2023/01/26 11:26:09;;;;;;;35.90;13.40;;;;;;;-0.52;100.00;101977.50;7395948;19;20169;-63
2023/01/26 11:28:47;;;;;;;49.65;15.90;;;;;;;-0.50;100.00;101970.97;7394872;19;20209;-62
2023/01/26 11:31:29;;;;;;;54.75;13.27;;;;;;;-0.48;100.00;101969.50;7399240;19;20488;-63
2023/01/26 11:34:09;;;;;;;45.40;12.48;;;;;;;-0.43;100.00;101973.41;7396048;19;20194;-62
2023/01/26 11:36:45;;;;;;;42.60;12.77;;;;;;;-0.34;100.00;101970.03;7399120;19;20486;-63
2023/01/26 11:39:21;;;;;;;39.42;13.20;;;;;;;-0.32;100.00;101968.56;7396704;19;20185;-62
2023/01/26 11:41:59;;;;;;;39.28;13.00;;;;;;;-0.20;100.00;101949.53;7399212;19;20141;-62
2023/01/26 11:44:47;;;;;;;53.65;14.48;;;;;;;-0.31;100.00;101956.03;7397501;19;20190;-63
2023/01/26 11:47:25;;;;;;;33.45;13.15;;;;;;;-0.17;100.00;101959.13;7396039;19;20881;-62
2023/01/26 11:50:19;;;;;;;36.88;12.90;;;;;;;-0.13;100.00;101958.72;7398954;19;20598;-63
2023/01/26 11:52:55;;;;;;;36.55;13.65;;;;;;;0.01;100.00;101950.00;7393283;19;20190;-64
2023/01/26 11:55:33;;;;;;;57.47;14.38;;;;;;;0.06;100.00;101948.81;7399580;19;20142;-62
2023/01/26 11:58:25;;;;;;;57.72;14.00;;;;;;;0.01;100.00;101939.84;7394326;19;20193;-62
2023/01/26 12:00:57;;;;;;;45.45;13.38;;;;;;;-0.02;100.00;101939.50;7398320;19;20154;-62
2023/01/26 12:03:31;;;;;;;39.88;11.35;;;;;;;-0.09;100.00;101952.31;7394794;19;20198;-63
2023/01/26 12:06:05;;;;;;;36.90;12.80;;;;;;;0.00;100.00;101948.22;7398872;19;20497;-63
2023/01/26 12:08:39;;;;;;;38.80;12.25;;;;;;;0.05;100.00;101946.13;7395576;19;20222;-62
2023/01/26 12:11:24;;;;;;;42.80;12.50;;;;;;;0.06;100.00;101953.88;7397923;19;20146;-61
2023/01/26 12:14:05;;;;;;;47.15;14.32;;;;;;;0.04;100.00;101950.31;7393620;19;20229;-62